sensor_id;sensor_type;location;lat;lon;timestamp;P1;durP1;ratioP1;P2;durP2;ratioP2
23236;SDS011;11787;52.018;8.570;2023-03-14T11:31:57;0.88;;;0.30;;
23236;SDS011;11787;52.018;8.570;2023-03-14T11:44:43;0.30;;;0.10;;
23236;SDS011;11787;52.018;8.570;2023-03-14T11:52:30;0.10;;;0.10;;
23236;SDS011;11787;52.018;8.570;2023-03-14T11:57:33;0.20;;;0.20;;
23236;SDS011;11787;52.018;8.570;2023-03-14T12:00:01;0.98;;;0.20;;
23236;SDS011;11787;52.018;8.570;2023-03-14T12:05:28;0.63;;;0.38;;
23236;SDS011;11787;52.018;8.570;2023-03-14T12:10:39;2.15;;;0.55;;
23236;SDS011;11787;52.018;8.570;2023-03-14T12:13:07;2.20;;;0.60;;
23236;SDS011;11787;52.018;8.570;2023-03-14T12:15:36;4.22;;;0.50;;
23236;SDS011;11787;52.018;8.570;2023-03-14T12:18:14;4.07;;;0.70;;
23236;SDS011;11787;52.018;8.570;2023-03-14T12:20:50;5.93;;;0.90;;
23236;SDS011;11787;52.018;8.570;2023-03-14T12:23:19;2.60;;;0.70;;
23236;SDS011;11787;52.018;8.570;2023-03-14T12:25:45;2.40;;;1.10;;
23236;SDS011;11787;52.018;8.570;2023-03-14T12:28:21;1.98;;;0.40;;
23236;SDS011;11787;52.018;8.570;2023-03-14T12:30:55;2.85;;;0.80;;
23236;SDS011;11787;52.018;8.570;2023-03-14T12:33:26;3.58;;;0.85;;
23236;SDS011;11787;52.018;8.570;2023-03-14T12:36:02;2.67;;;0.70;;
23236;SDS011;11787;52.018;8.570;2023-03-14T12:41:03;6.85;;;1.33;;
23236;SDS011;11787;52.018;8.570;2023-03-14T12:43:34;4.75;;;1.00;;
23236;SDS011;11787;52.018;8.570;2023-03-14T13:04:52;5.53;;;1.25;;
23236;SDS011;11787;52.018;8.570;2023-03-14T13:10:20;3.95;;;0.80;;
23236;SDS011;11787;52.018;8.570;2023-03-14T13:15:35;6.13;;;1.40;;
23236;SDS011;11787;52.018;8.570;2023-03-14T13:18:15;7.22;;;2.00;;
23236;SDS011;11787;52.018;8.570;2023-03-14T13:20:55;12.85;;;2.13;;
23236;SDS011;11787;52.018;8.570;2023-03-14T13:23:30;6.93;;;1.10;;
23236;SDS011;11787;52.018;8.570;2023-03-14T13:25:57;7.65;;;1.20;;
23236;SDS011;11787;52.018;8.570;2023-03-14T13:28:25;8.75;;;1.85;;
23236;SDS011;11787;52.018;8.570;2023-03-14T13:30:56;8.32;;;1.52;;
23236;SDS011;11787;52.018;8.570;2023-03-14T13:33:24;9.57;;;1.25;;
23236;SDS011;11787;52.018;8.570;2023-03-14T13:36:00;14.13;;;1.95;;
23236;SDS011;11787;52.018;8.570;2023-03-14T13:38:29;12.48;;;2.55;;
23236;SDS011;11787;52.018;8.570;2023-03-14T13:40:58;11.20;;;2.30;;
23236;SDS011;11787;52.018;8.570;2023-03-14T13:43:36;12.95;;;2.28;;
23236;SDS011;11787;52.018;8.570;2023-03-14T13:46:07;9.98;;;2.17;;
23236;SDS011;11787;52.018;8.570;2023-03-14T13:49:02;9.65;;;1.83;;
23236;SDS011;11787;52.018;8.570;2023-03-14T13:51:30;13.52;;;2.00;;
23236;SDS011;11787;52.018;8.570;2023-03-14T13:53:59;13.48;;;2.80;;
23236;SDS011;11787;52.018;8.570;2023-03-14T13:56:26;11.80;;;2.28;;
23236;SDS011;11787;52.018;8.570;2023-03-14T13:58:53;16.05;;;2.90;;
23236;SDS011;11787;52.018;8.570;2023-03-14T14:01:20;15.15;;;2.55;;
23236;SDS011;11787;52.018;8.570;2023-03-14T14:03:50;14.60;;;2.55;;
23236;SDS011;11787;52.018;8.570;2023-03-14T14:09:24;18.90;;;2.53;;
23236;SDS011;11787;52.018;8.570;2023-03-14T14:11:56;14.57;;;2.65;;
23236;SDS011;11787;52.018;8.570;2023-03-14T14:17:05;13.75;;;2.17;;
23236;SDS011;11787;52.018;8.570;2023-03-14T14:19:33;16.25;;;3.17;;
23236;SDS011;11787;52.018;8.570;2023-03-14T14:22:00;20.95;;;2.53;;
23236;SDS011;11787;52.018;8.570;2023-03-14T14:24:31;15.07;;;2.83;;
23236;SDS011;11787;52.018;8.570;2023-03-14T14:27:13;9.18;;;1.75;;
23236;SDS011;11787;52.018;8.570;2023-03-14T14:29:39;11.40;;;2.35;;
23236;SDS011;11787;52.018;8.570;2023-03-14T14:34:38;20.88;;;2.65;;
23236;SDS011;11787;52.018;8.570;2023-03-14T14:37:05;8.73;;;1.80;;
23236;SDS011;11787;52.018;8.570;2023-03-14T14:39:39;13.02;;;2.00;;
23236;SDS011;11787;52.018;8.570;2023-03-14T14:42:12;16.92;;;2.35;;
23236;SDS011;11787;52.018;8.570;2023-03-14T14:44:40;18.48;;;2.97;;
23236;SDS011;11787;52.018;8.570;2023-03-14T14:47:12;15.13;;;2.10;;
23236;SDS011;11787;52.018;8.570;2023-03-14T14:49:39;14.93;;;2.63;;
23236;SDS011;11787;52.018;8.570;2023-03-14T14:52:18;10.57;;;1.88;;
23236;SDS011;11787;52.018;8.570;2023-03-14T14:54:53;12.70;;;2.13;;
23236;SDS011;11787;52.018;8.570;2023-03-14T14:57:40;18.35;;;3.00;;
23236;SDS011;11787;52.018;8.570;2023-03-14T15:00:22;10.18;;;1.80;;
23236;SDS011;11787;52.018;8.570;2023-03-14T15:02:54;15.27;;;2.38;;
23236;SDS011;11787;52.018;8.570;2023-03-14T15:05:24;10.10;;;1.75;;
23236;SDS011;11787;52.018;8.570;2023-03-14T15:07:52;12.95;;;1.90;;
23236;SDS011;11787;52.018;8.570;2023-03-14T15:10:19;10.02;;;1.63;;
23236;SDS011;11787;52.018;8.570;2023-03-14T15:12:47;11.48;;;2.17;;
23236;SDS011;11787;52.018;8.570;2023-03-14T15:15:14;9.20;;;1.98;;
23236;SDS011;11787;52.018;8.570;2023-03-14T15:17:40;6.45;;;1.67;;
23236;SDS011;11787;52.018;8.570;2023-03-14T15:20:09;7.95;;;1.35;;
23236;SDS011;11787;52.018;8.570;2023-03-14T15:22:38;8.25;;;1.60;;
23236;SDS011;11787;52.018;8.570;2023-03-14T15:25:04;6.85;;;1.77;;
23236;SDS011;11787;52.018;8.570;2023-03-14T15:27:30;9.05;;;1.77;;
23236;SDS011;11787;52.018;8.570;2023-03-14T15:29:57;10.98;;;1.25;;
23236;SDS011;11787;52.018;8.570;2023-03-14T15:32:23;5.03;;;1.23;;
23236;SDS011;11787;52.018;8.570;2023-03-14T15:34:52;16.02;;;2.38;;
23236;SDS011;11787;52.018;8.570;2023-03-14T15:37:19;7.72;;;1.85;;
23236;SDS011;11787;52.018;8.570;2023-03-14T15:39:45;6.28;;;1.00;;
23236;SDS011;11787;52.018;8.570;2023-03-14T15:42:11;7.38;;;1.70;;
23236;SDS011;11787;52.018;8.570;2023-03-14T15:44:37;5.20;;;1.17;;
23236;SDS011;11787;52.018;8.570;2023-03-14T15:47:03;6.20;;;1.40;;
23236;SDS011;11787;52.018;8.570;2023-03-14T15:49:30;8.38;;;1.30;;
23236;SDS011;11787;52.018;8.570;2023-03-14T15:51:56;8.57;;;1.33;;
23236;SDS011;11787;52.018;8.570;2023-03-14T15:54:23;4.45;;;1.00;;
23236;SDS011;11787;52.018;8.570;2023-03-14T15:56:53;8.68;;;1.42;;
23236;SDS011;11787;52.018;8.570;2023-03-14T15:59:20;4.13;;;1.23;;
23236;SDS011;11787;52.018;8.570;2023-03-14T16:01:46;5.68;;;1.30;;
23236;SDS011;11787;52.018;8.570;2023-03-14T16:04:12;6.07;;;1.42;;
23236;SDS011;11787;52.018;8.570;2023-03-14T16:06:38;9.90;;;1.42;;
23236;SDS011;11787;52.018;8.570;2023-03-14T16:09:04;10.30;;;1.65;;
23236;SDS011;11787;52.018;8.570;2023-03-14T16:11:30;8.20;;;1.35;;
23236;SDS011;11787;52.018;8.570;2023-03-14T16:13:56;6.97;;;1.55;;
23236;SDS011;11787;52.018;8.570;2023-03-14T16:16:21;9.30;;;1.55;;
23236;SDS011;11787;52.018;8.570;2023-03-14T16:18:47;9.48;;;1.73;;
23236;SDS011;11787;52.018;8.570;2023-03-14T16:21:16;7.28;;;1.33;;
23236;SDS011;11787;52.018;8.570;2023-03-14T16:23:44;7.85;;;1.85;;
23236;SDS011;11787;52.018;8.570;2023-03-14T16:26:17;10.40;;;1.40;;
23236;SDS011;11787;52.018;8.570;2023-03-14T16:28:44;4.78;;;1.20;;
23236;SDS011;11787;52.018;8.570;2023-03-14T16:31:11;9.32;;;1.65;;
23236;SDS011;11787;52.018;8.570;2023-03-14T16:33:39;10.02;;;1.35;;
23236;SDS011;11787;52.018;8.570;2023-03-14T16:36:05;3.67;;;1.27;;
23236;SDS011;11787;52.018;8.570;2023-03-14T16:38:33;6.57;;;1.20;;
23236;SDS011;11787;52.018;8.570;2023-03-14T16:41:04;6.97;;;1.30;;
23236;SDS011;11787;52.018;8.570;2023-03-14T16:43:31;7.50;;;1.17;;
23236;SDS011;11787;52.018;8.570;2023-03-14T16:45:58;8.05;;;2.20;;
23236;SDS011;11787;52.018;8.570;2023-03-14T16:48:25;8.80;;;1.90;;
23236;SDS011;11787;52.018;8.570;2023-03-14T16:50:51;9.43;;;1.35;;
23236;SDS011;11787;52.018;8.570;2023-03-14T16:53:17;8.45;;;1.98;;
23236;SDS011;11787;52.018;8.570;2023-03-14T16:55:43;5.40;;;1.20;;
23236;SDS011;11787;52.018;8.570;2023-03-14T16:58:09;8.95;;;1.75;;
23236;SDS011;11787;52.018;8.570;2023-03-14T17:00:34;11.70;;;2.22;;
23236;SDS011;11787;52.018;8.570;2023-03-14T17:03:00;6.57;;;1.48;;
23236;SDS011;11787;52.018;8.570;2023-03-14T17:05:26;7.72;;;1.67;;
23236;SDS011;11787;52.018;8.570;2023-03-14T17:07:52;7.65;;;2.13;;
23236;SDS011;11787;52.018;8.570;2023-03-14T17:10:17;10.85;;;2.13;;
23236;SDS011;11787;52.018;8.570;2023-03-14T17:12:43;6.55;;;1.80;;
23236;SDS011;11787;52.018;8.570;2023-03-14T17:15:09;10.90;;;1.73;;
23236;SDS011;11787;52.018;8.570;2023-03-14T17:17:35;7.95;;;1.60;;
23236;SDS011;11787;52.018;8.570;2023-03-14T17:20:02;6.95;;;1.55;;
23236;SDS011;11787;52.018;8.570;2023-03-14T17:22:29;5.55;;;1.45;;
23236;SDS011;11787;52.018;8.570;2023-03-14T17:24:54;7.53;;;1.65;;
23236;SDS011;11787;52.018;8.570;2023-03-14T17:27:20;8.73;;;1.80;;
23236;SDS011;11787;52.018;8.570;2023-03-14T17:29:46;7.60;;;1.67;;
23236;SDS011;11787;52.018;8.570;2023-03-14T17:32:13;10.80;;;2.03;;
23236;SDS011;11787;52.018;8.570;2023-03-14T17:34:39;5.85;;;1.58;;
23236;SDS011;11787;52.018;8.570;2023-03-14T17:37:05;7.30;;;1.90;;
23236;SDS011;11787;52.018;8.570;2023-03-14T17:39:30;6.90;;;1.25;;
23236;SDS011;11787;52.018;8.570;2023-03-14T17:41:56;8.82;;;1.80;;
23236;SDS011;11787;52.018;8.570;2023-03-14T17:44:21;7.50;;;1.80;;
23236;SDS011;11787;52.018;8.570;2023-03-14T17:46:47;6.85;;;1.65;;
23236;SDS011;11787;52.018;8.570;2023-03-14T17:49:13;10.25;;;1.85;;
23236;SDS011;11787;52.018;8.570;2023-03-14T17:51:39;13.15;;;2.40;;
23236;SDS011;11787;52.018;8.570;2023-03-14T17:54:04;7.32;;;1.67;;
23236;SDS011;11787;52.018;8.570;2023-03-14T17:56:30;9.70;;;2.22;;
23236;SDS011;11787;52.018;8.570;2023-03-14T17:58:56;6.43;;;1.90;;
23236;SDS011;11787;52.018;8.570;2023-03-14T18:01:22;9.45;;;2.00;;
23236;SDS011;11787;52.018;8.570;2023-03-14T18:03:48;7.38;;;2.20;;
23236;SDS011;11787;52.018;8.570;2023-03-14T18:06:20;7.00;;;2.15;;
23236;SDS011;11787;52.018;8.570;2023-03-14T18:08:46;10.38;;;2.17;;
23236;SDS011;11787;52.018;8.570;2023-03-14T18:11:11;7.50;;;1.77;;
23236;SDS011;11787;52.018;8.570;2023-03-14T18:13:38;6.03;;;1.73;;
23236;SDS011;11787;52.018;8.570;2023-03-14T18:16:05;7.97;;;1.60;;
23236;SDS011;11787;52.018;8.570;2023-03-14T18:18:32;4.35;;;1.50;;
23236;SDS011;11787;52.018;8.570;2023-03-14T18:20:57;8.43;;;1.73;;
23236;SDS011;11787;52.018;8.570;2023-03-14T18:23:23;10.13;;;2.15;;
23236;SDS011;11787;52.018;8.570;2023-03-14T18:25:49;6.15;;;1.95;;
23236;SDS011;11787;52.018;8.570;2023-03-14T18:28:15;7.35;;;1.98;;
23236;SDS011;11787;52.018;8.570;2023-03-14T18:30:42;6.38;;;2.05;;
23236;SDS011;11787;52.018;8.570;2023-03-14T18:33:11;8.98;;;2.17;;
23236;SDS011;11787;52.018;8.570;2023-03-14T18:35:37;6.55;;;2.10;;
23236;SDS011;11787;52.018;8.570;2023-03-14T18:38:02;9.60;;;2.03;;
23236;SDS011;11787;52.018;8.570;2023-03-14T18:40:28;12.52;;;2.70;;
23236;SDS011;11787;52.018;8.570;2023-03-14T18:42:54;8.90;;;2.20;;
23236;SDS011;11787;52.018;8.570;2023-03-14T18:45:20;11.40;;;2.03;;
23236;SDS011;11787;52.018;8.570;2023-03-14T18:47:45;7.78;;;1.90;;
23236;SDS011;11787;52.018;8.570;2023-03-14T18:50:11;8.93;;;2.33;;
23236;SDS011;11787;52.018;8.570;2023-03-14T18:52:37;10.25;;;2.13;;
23236;SDS011;11787;52.018;8.570;2023-03-14T18:55:03;5.13;;;1.60;;
23236;SDS011;11787;52.018;8.570;2023-03-14T18:57:29;8.70;;;2.22;;
23236;SDS011;11787;52.018;8.570;2023-03-14T18:59:55;6.97;;;2.15;;
23236;SDS011;11787;52.018;8.570;2023-03-14T19:02:23;8.65;;;2.35;;
23236;SDS011;11787;52.018;8.570;2023-03-14T19:04:50;7.88;;;1.88;;
23236;SDS011;11787;52.018;8.570;2023-03-14T19:07:16;7.40;;;2.20;;
23236;SDS011;11787;52.018;8.570;2023-03-14T19:09:43;6.85;;;1.92;;
23236;SDS011;11787;52.018;8.570;2023-03-14T19:12:08;9.48;;;2.13;;
23236;SDS011;11787;52.018;8.570;2023-03-14T19:14:34;8.38;;;2.22;;
23236;SDS011;11787;52.018;8.570;2023-03-14T19:17:00;8.60;;;1.92;;
23236;SDS011;11787;52.018;8.570;2023-03-14T19:19:25;4.95;;;1.83;;
23236;SDS011;11787;52.018;8.570;2023-03-14T19:21:51;4.75;;;1.70;;
23236;SDS011;11787;52.018;8.570;2023-03-14T19:24:18;7.43;;;1.75;;
23236;SDS011;11787;52.018;8.570;2023-03-14T19:26:46;8.15;;;1.58;;
23236;SDS011;11787;52.018;8.570;2023-03-14T19:29:12;7.53;;;2.35;;
23236;SDS011;11787;52.018;8.570;2023-03-14T19:31:38;7.25;;;2.05;;
23236;SDS011;11787;52.018;8.570;2023-03-14T19:34:04;9.55;;;1.80;;
23236;SDS011;11787;52.018;8.570;2023-03-14T19:36:31;7.18;;;2.72;;
23236;SDS011;11787;52.018;8.570;2023-03-14T19:38:59;7.05;;;2.15;;
23236;SDS011;11787;52.018;8.570;2023-03-14T19:41:28;11.57;;;2.97;;
23236;SDS011;11787;52.018;8.570;2023-03-14T19:43:54;12.68;;;2.65;;
23236;SDS011;11787;52.018;8.570;2023-03-14T19:46:20;10.00;;;2.33;;
23236;SDS011;11787;52.018;8.570;2023-03-14T19:48:46;11.50;;;2.45;;
23236;SDS011;11787;52.018;8.570;2023-03-14T19:51:13;8.18;;;2.10;;
23236;SDS011;11787;52.018;8.570;2023-03-14T19:53:40;8.93;;;2.05;;
23236;SDS011;11787;52.018;8.570;2023-03-14T19:56:07;7.28;;;2.40;;
23236;SDS011;11787;52.018;8.570;2023-03-14T19:58:34;10.07;;;2.95;;
23236;SDS011;11787;52.018;8.570;2023-03-14T20:01:01;6.22;;;1.52;;
23236;SDS011;11787;52.018;8.570;2023-03-14T20:03:26;11.27;;;2.33;;
23236;SDS011;11787;52.018;8.570;2023-03-14T20:05:52;8.55;;;1.80;;
23236;SDS011;11787;52.018;8.570;2023-03-14T20:08:21;7.47;;;2.35;;
23236;SDS011;11787;52.018;8.570;2023-03-14T20:10:47;8.93;;;1.88;;
23236;SDS011;11787;52.018;8.570;2023-03-14T20:13:14;5.72;;;1.52;;
23236;SDS011;11787;52.018;8.570;2023-03-14T20:15:40;6.68;;;1.92;;
23236;SDS011;11787;52.018;8.570;2023-03-14T20:18:06;8.63;;;1.83;;
23236;SDS011;11787;52.018;8.570;2023-03-14T20:20:31;8.80;;;2.05;;
23236;SDS011;11787;52.018;8.570;2023-03-14T20:22:58;6.90;;;1.55;;
23236;SDS011;11787;52.018;8.570;2023-03-14T20:25:24;8.85;;;1.88;;
23236;SDS011;11787;52.018;8.570;2023-03-14T20:27:49;12.07;;;1.75;;
23236;SDS011;11787;52.018;8.570;2023-03-14T20:30:18;8.00;;;1.85;;
23236;SDS011;11787;52.018;8.570;2023-03-14T20:32:46;7.63;;;1.80;;
23236;SDS011;11787;52.018;8.570;2023-03-14T20:35:12;9.00;;;1.85;;
23236;SDS011;11787;52.018;8.570;2023-03-14T20:37:44;7.65;;;1.90;;
23236;SDS011;11787;52.018;8.570;2023-03-14T20:40:09;6.57;;;1.65;;
23236;SDS011;11787;52.018;8.570;2023-03-14T20:42:37;10.93;;;1.63;;
23236;SDS011;11787;52.018;8.570;2023-03-14T20:45:03;8.05;;;1.77;;
23236;SDS011;11787;52.018;8.570;2023-03-14T20:47:29;8.57;;;2.10;;
23236;SDS011;11787;52.018;8.570;2023-03-14T20:49:55;7.80;;;2.15;;
23236;SDS011;11787;52.018;8.570;2023-03-14T20:52:21;10.02;;;1.92;;
23236;SDS011;11787;52.018;8.570;2023-03-14T20:54:46;8.95;;;2.70;;
23236;SDS011;11787;52.018;8.570;2023-03-14T20:57:12;10.05;;;2.00;;
23236;SDS011;11787;52.018;8.570;2023-03-14T20:59:39;11.77;;;3.22;;
23236;SDS011;11787;52.018;8.570;2023-03-14T21:02:04;7.75;;;2.53;;
23236;SDS011;11787;52.018;8.570;2023-03-14T21:04:30;8.75;;;2.00;;
23236;SDS011;11787;52.018;8.570;2023-03-14T21:06:56;6.30;;;2.20;;
23236;SDS011;11787;52.018;8.570;2023-03-14T21:09:22;11.00;;;3.08;;
23236;SDS011;11787;52.018;8.570;2023-03-14T21:11:48;11.35;;;2.20;;
23236;SDS011;11787;52.018;8.570;2023-03-14T21:14:14;12.30;;;2.58;;
23236;SDS011;11787;52.018;8.570;2023-03-14T21:16:43;8.52;;;2.10;;
23236;SDS011;11787;52.018;8.570;2023-03-14T21:19:09;12.10;;;2.45;;
23236;SDS011;11787;52.018;8.570;2023-03-14T21:21:35;9.73;;;2.85;;
23236;SDS011;11787;52.018;8.570;2023-03-14T21:24:01;8.40;;;1.98;;
23236;SDS011;11787;52.018;8.570;2023-03-14T21:26:28;12.80;;;2.42;;
23236;SDS011;11787;52.018;8.570;2023-03-14T21:28:53;8.98;;;2.40;;
23236;SDS011;11787;52.018;8.570;2023-03-14T21:31:19;9.05;;;2.40;;
23236;SDS011;11787;52.018;8.570;2023-03-14T21:33:45;10.57;;;2.85;;
23236;SDS011;11787;52.018;8.570;2023-03-14T21:36:12;10.77;;;3.15;;
23236;SDS011;11787;52.018;8.570;2023-03-14T21:38:38;9.88;;;2.33;;
23236;SDS011;11787;52.018;8.570;2023-03-14T21:41:04;7.97;;;2.47;;
23236;SDS011;11787;52.018;8.570;2023-03-14T21:43:31;10.98;;;2.53;;
23236;SDS011;11787;52.018;8.570;2023-03-14T21:45:57;5.45;;;1.83;;
23236;SDS011;11787;52.018;8.570;2023-03-14T21:48:23;9.43;;;2.50;;
23236;SDS011;11787;52.018;8.570;2023-03-14T21:50:49;13.27;;;2.70;;
23236;SDS011;11787;52.018;8.570;2023-03-14T21:53:14;10.07;;;2.72;;
23236;SDS011;11787;52.018;8.570;2023-03-14T21:55:41;8.93;;;1.55;;
23236;SDS011;11787;52.018;8.570;2023-03-14T21:58:07;7.85;;;2.20;;
23236;SDS011;11787;52.018;8.570;2023-03-14T22:00:33;15.23;;;2.50;;
23236;SDS011;11787;52.018;8.570;2023-03-14T22:03:00;8.55;;;2.42;;
23236;SDS011;11787;52.018;8.570;2023-03-14T22:05:26;10.90;;;2.65;;
23236;SDS011;11787;52.018;8.570;2023-03-14T22:07:51;10.07;;;2.38;;
23236;SDS011;11787;52.018;8.570;2023-03-14T22:10:17;8.30;;;2.58;;
23236;SDS011;11787;52.018;8.570;2023-03-14T22:12:43;10.73;;;2.83;;
23236;SDS011;11787;52.018;8.570;2023-03-14T22:15:09;11.45;;;2.30;;
23236;SDS011;11787;52.018;8.570;2023-03-14T22:17:35;10.93;;;3.15;;
23236;SDS011;11787;52.018;8.570;2023-03-14T22:20:01;8.93;;;2.65;;
23236;SDS011;11787;52.018;8.570;2023-03-14T22:22:28;12.70;;;2.50;;
23236;SDS011;11787;52.018;8.570;2023-03-14T22:24:54;7.82;;;2.55;;
23236;SDS011;11787;52.018;8.570;2023-03-14T22:27:20;8.90;;;1.95;;
23236;SDS011;11787;52.018;8.570;2023-03-14T22:29:45;7.32;;;1.67;;
23236;SDS011;11787;52.018;8.570;2023-03-14T22:32:11;7.43;;;2.30;;
23236;SDS011;11787;52.018;8.570;2023-03-14T22:34:37;8.32;;;2.08;;
23236;SDS011;11787;52.018;8.570;2023-03-14T22:37:04;9.18;;;2.53;;
23236;SDS011;11787;52.018;8.570;2023-03-14T22:39:30;9.20;;;1.85;;
23236;SDS011;11787;52.018;8.570;2023-03-14T22:41:56;15.38;;;2.92;;
23236;SDS011;11787;52.018;8.570;2023-03-14T22:44:23;7.35;;;2.35;;
23236;SDS011;11787;52.018;8.570;2023-03-14T22:46:48;8.20;;;1.95;;
23236;SDS011;11787;52.018;8.570;2023-03-14T22:49:14;9.30;;;2.35;;
23236;SDS011;11787;52.018;8.570;2023-03-14T22:51:40;12.70;;;2.35;;
23236;SDS011;11787;52.018;8.570;2023-03-14T22:54:06;7.20;;;1.65;;
23236;SDS011;11787;52.018;8.570;2023-03-14T22:56:32;7.13;;;2.33;;
23236;SDS011;11787;52.018;8.570;2023-03-14T22:58:58;11.68;;;2.00;;
23236;SDS011;11787;52.018;8.570;2023-03-14T23:04:43;19.65;;;2.55;;
23236;SDS011;11787;52.018;8.570;2023-03-14T23:07:08;17.83;;;2.45;;
23236;SDS011;11787;52.018;8.570;2023-03-14T23:09:34;11.38;;;2.13;;
23236;SDS011;11787;52.018;8.570;2023-03-14T23:12:01;8.25;;;2.22;;
23236;SDS011;11787;52.018;8.570;2023-03-14T23:14:27;12.95;;;2.25;;
23236;SDS011;11787;52.018;8.570;2023-03-14T23:16:53;6.93;;;2.03;;
23236;SDS011;11787;52.018;8.570;2023-03-14T23:19:19;8.70;;;2.35;;
23236;SDS011;11787;52.018;8.570;2023-03-14T23:21:49;7.45;;;1.77;;
23236;SDS011;11787;52.018;8.570;2023-03-14T23:24:19;7.38;;;2.03;;
23236;SDS011;11787;52.018;8.570;2023-03-14T23:26:47;9.82;;;2.80;;
23236;SDS011;11787;52.018;8.570;2023-03-14T23:29:13;13.30;;;1.95;;
23236;SDS011;11787;52.018;8.570;2023-03-14T23:31:39;10.40;;;2.30;;
23236;SDS011;11787;52.018;8.570;2023-03-14T23:34:05;10.73;;;1.95;;
23236;SDS011;11787;52.018;8.570;2023-03-14T23:36:31;11.55;;;2.35;;
23236;SDS011;11787;52.018;8.570;2023-03-14T23:39:01;11.05;;;1.80;;
23236;SDS011;11787;52.018;8.570;2023-03-14T23:41:28;11.50;;;2.00;;
23236;SDS011;11787;52.018;8.570;2023-03-14T23:43:53;11.55;;;2.40;;
23236;SDS011;11787;52.018;8.570;2023-03-14T23:46:19;8.60;;;1.90;;
23236;SDS011;11787;52.018;8.570;2023-03-14T23:48:45;7.70;;;1.92;;
23236;SDS011;11787;52.018;8.570;2023-03-14T23:51:11;7.45;;;2.00;;
23236;SDS011;11787;52.018;8.570;2023-03-14T23:53:38;9.05;;;2.03;;
23236;SDS011;11787;52.018;8.570;2023-03-14T23:56:04;7.82;;;2.00;;
23236;SDS011;11787;52.018;8.570;2023-03-14T23:58:30;11.63;;;2.40;;
